sensor_id;sensor_type;location;lat;lon;timestamp;pressure;altitude;pressure_sealevel;temperature;humidity
76519;BME280;67029;51.054;13.798;2023-07-28T00:01:34;99275.87;;;21.69;59.58
76519;BME280;67029;51.054;13.798;2023-07-28T00:04:05;99277.80;;;21.75;59.34
76519;BME280;67029;51.054;13.798;2023-07-28T00:06:35;99280.16;;;21.81;59.15
76519;BME280;67029;51.054;13.798;2023-07-28T00:09:05;99276.47;;;21.81;59.20
76519;BME280;67029;51.054;13.798;2023-07-28T00:11:35;99269.55;;;21.80;59.28
76519;BME280;67029;51.054;13.798;2023-07-28T00:14:05;99267.55;;;21.80;59.32
76519;BME280;67029;51.054;13.798;2023-07-28T00:16:35;99273.12;;;21.83;59.28
76519;BME280;67029;51.054;13.798;2023-07-28T00:19:05;99265.27;;;21.84;59.20
76519;BME280;67029;51.054;13.798;2023-07-28T00:21:35;99263.94;;;21.82;59.38
76519;BME280;67029;51.054;13.798;2023-07-28T00:24:05;99263.78;;;21.84;59.33
76519;BME280;67029;51.054;13.798;2023-07-28T00:26:35;99262.45;;;21.82;59.50
76519;BME280;67029;51.054;13.798;2023-07-28T00:29:05;99254.82;;;21.83;59.50
76519;BME280;67029;51.054;13.798;2023-07-28T00:31:35;99253.14;;;21.78;59.75
76519;BME280;67029;51.054;13.798;2023-07-28T00:34:05;99255.04;;;21.80;59.82
76519;BME280;67029;51.054;13.798;2023-07-28T00:36:35;99252.73;;;21.79;59.86
76519;BME280;67029;51.054;13.798;2023-07-28T00:39:05;99250.87;;;21.82;59.75
76519;BME280;67029;51.054;13.798;2023-07-28T00:41:35;99250.38;;;21.86;59.67
76519;BME280;67029;51.054;13.798;2023-07-28T00:44:05;99248.62;;;21.83;59.90
76519;BME280;67029;51.054;13.798;2023-07-28T00:46:35;99250.69;;;21.80;59.98
76519;BME280;67029;51.054;13.798;2023-07-28T00:49:05;99250.42;;;21.84;59.98
76519;BME280;67029;51.054;13.798;2023-07-28T00:51:37;99248.66;;;21.86;60.01
76519;BME280;67029;51.054;13.798;2023-07-28T00:54:06;99247.27;;;21.91;59.86
76519;BME280;67029;51.054;13.798;2023-07-28T00:56:36;99245.11;;;21.96;59.82
76519;BME280;67029;51.054;13.798;2023-07-28T00:59:06;99237.52;;;21.99;59.62
76519;BME280;67029;51.054;13.798;2023-07-28T01:01:36;99235.28;;;22.01;59.60
76519;BME280;67029;51.054;13.798;2023-07-28T01:04:06;99239.91;;;22.00;59.76
76519;BME280;67029;51.054;13.798;2023-07-28T01:07:04;99236.78;;;22.03;59.68
76519;BME280;67029;51.054;13.798;2023-07-28T01:09:13;99233.82;;;22.05;59.57
76519;BME280;67029;51.054;13.798;2023-07-28T01:11:37;99233.83;;;22.07;59.57
76519;BME280;67029;51.054;13.798;2023-07-28T01:14:07;99231.03;;;22.10;59.48
76519;BME280;67029;51.054;13.798;2023-07-28T01:16:37;99236.49;;;22.13;59.47
76519;BME280;67029;51.054;13.798;2023-07-28T01:19:08;99239.90;;;22.15;59.42
76519;BME280;67029;51.054;13.798;2023-07-28T01:21:39;99237.77;;;22.14;59.43
76519;BME280;67029;51.054;13.798;2023-07-28T01:24:29;99243.05;;;22.17;59.39
76519;BME280;67029;51.054;13.798;2023-07-28T01:26:39;99237.80;;;22.20;59.27
76519;BME280;67029;51.054;13.798;2023-07-28T01:29:11;99241.41;;;22.23;59.24
76519;BME280;67029;51.054;13.798;2023-07-28T01:31:40;99242.97;;;22.20;59.32
76519;BME280;67029;51.054;13.798;2023-07-28T01:34:10;99241.23;;;22.23;59.33
76519;BME280;67029;51.054;13.798;2023-07-28T01:36:40;99246.05;;;22.20;59.36
76519;BME280;67029;51.054;13.798;2023-07-28T01:39:10;99248.17;;;22.21;59.50
76519;BME280;67029;51.054;13.798;2023-07-28T01:41:40;99243.47;;;22.19;59.53
76519;BME280;67029;51.054;13.798;2023-07-28T01:44:10;99242.09;;;22.16;59.84
76519;BME280;67029;51.054;13.798;2023-07-28T01:46:40;99241.08;;;22.11;59.96
76519;BME280;67029;51.054;13.798;2023-07-28T01:49:12;99240.59;;;22.08;60.13
76519;BME280;67029;51.054;13.798;2023-07-28T01:51:41;99236.23;;;22.05;60.30
76519;BME280;67029;51.054;13.798;2023-07-28T01:54:11;99235.62;;;22.02;60.47
76519;BME280;67029;51.054;13.798;2023-07-28T01:56:41;99237.84;;;22.00;60.49
76519;BME280;67029;51.054;13.798;2023-07-28T01:59:11;99237.16;;;21.99;60.57
76519;BME280;67029;51.054;13.798;2023-07-28T02:01:42;99233.97;;;22.01;60.58
76519;BME280;67029;51.054;13.798;2023-07-28T02:04:12;99231.40;;;21.96;60.85
76519;BME280;67029;51.054;13.798;2023-07-28T02:06:42;99236.07;;;21.98;60.63
76519;BME280;67029;51.054;13.798;2023-07-28T02:09:12;99238.83;;;22.00;60.51
76519;BME280;67029;51.054;13.798;2023-07-28T02:11:42;99239.73;;;21.95;60.79
76519;BME280;67029;51.054;13.798;2023-07-28T02:14:12;99240.12;;;21.86;61.33
76519;BME280;67029;51.054;13.798;2023-07-28T02:16:43;99244.59;;;21.87;61.10
76519;BME280;67029;51.054;13.798;2023-07-28T02:19:12;99241.93;;;21.89;61.09
76519;BME280;67029;51.054;13.798;2023-07-28T02:21:42;99242.34;;;21.91;61.08
76519;BME280;67029;51.054;13.798;2023-07-28T02:24:12;99247.09;;;21.92;61.20
76519;BME280;67029;51.054;13.798;2023-07-28T02:26:42;99244.55;;;21.88;61.63
76519;BME280;67029;51.054;13.798;2023-07-28T02:29:12;99238.84;;;21.83;61.57
76519;BME280;67029;51.054;13.798;2023-07-28T02:31:42;99246.56;;;21.82;61.58
76519;BME280;67029;51.054;13.798;2023-07-28T02:34:12;99241.19;;;21.77;61.64
76519;BME280;67029;51.054;13.798;2023-07-28T02:36:42;99238.73;;;21.69;61.97
76519;BME280;67029;51.054;13.798;2023-07-28T02:39:12;99238.80;;;21.64;62.17
76519;BME280;67029;51.054;13.798;2023-07-28T02:41:44;99231.45;;;21.63;62.28
76519;BME280;67029;51.054;13.798;2023-07-28T02:44:13;99229.16;;;21.61;62.34
76519;BME280;67029;51.054;13.798;2023-07-28T02:46:43;99227.84;;;21.61;62.25
76519;BME280;67029;51.054;13.798;2023-07-28T02:49:13;99229.74;;;21.63;62.14
76519;BME280;67029;51.054;13.798;2023-07-28T02:51:45;99224.64;;;21.62;62.10
76519;BME280;67029;51.054;13.798;2023-07-28T02:54:14;99224.41;;;21.63;62.12
76519;BME280;67029;51.054;13.798;2023-07-28T02:56:44;99227.02;;;21.64;61.98
76519;BME280;67029;51.054;13.798;2023-07-28T02:59:14;99224.61;;;21.65;62.04
76519;BME280;67029;51.054;13.798;2023-07-28T03:01:44;99223.66;;;21.66;61.94
76519;BME280;67029;51.054;13.798;2023-07-28T03:04:14;99222.83;;;21.65;61.96
76519;BME280;67029;51.054;13.798;2023-07-28T03:06:44;99223.52;;;21.65;61.88
76519;BME280;67029;51.054;13.798;2023-07-28T03:09:14;99225.47;;;21.64;61.94
76519;BME280;67029;51.054;13.798;2023-07-28T03:11:44;99225.75;;;21.64;62.00
76519;BME280;67029;51.054;13.798;2023-07-28T03:14:14;99228.22;;;21.65;61.97
76519;BME280;67029;51.054;13.798;2023-07-28T03:16:44;99228.30;;;21.69;61.84
76519;BME280;67029;51.054;13.798;2023-07-28T03:19:14;99241.30;;;21.69;61.87
76519;BME280;67029;51.054;13.798;2023-07-28T03:21:44;99240.12;;;21.68;61.86
76519;BME280;67029;51.054;13.798;2023-07-28T03:24:14;99238.77;;;21.66;61.96
76519;BME280;67029;51.054;13.798;2023-07-28T03:26:44;99239.49;;;21.68;62.00
76519;BME280;67029;51.054;13.798;2023-07-28T03:29:14;99243.72;;;21.76;61.79
76519;BME280;67029;51.054;13.798;2023-07-28T03:31:44;99241.81;;;21.81;61.72
76519;BME280;67029;51.054;13.798;2023-07-28T03:34:16;99244.30;;;21.84;61.55
76519;BME280;67029;51.054;13.798;2023-07-28T03:36:44;99248.42;;;21.86;61.47
76519;BME280;67029;51.054;13.798;2023-07-28T03:39:14;99248.12;;;21.84;61.46
76519;BME280;67029;51.054;13.798;2023-07-28T03:41:45;99248.19;;;21.83;61.40
76519;BME280;67029;51.054;13.798;2023-07-28T03:44:15;99244.44;;;21.82;61.44
76519;BME280;67029;51.054;13.798;2023-07-28T03:46:45;99239.77;;;21.77;61.61
76519;BME280;67029;51.054;13.798;2023-07-28T03:49:15;99242.06;;;21.66;61.93
76519;BME280;67029;51.054;13.798;2023-07-28T03:51:45;99246.45;;;21.67;61.98
76519;BME280;67029;51.054;13.798;2023-07-28T03:54:15;99249.89;;;21.65;61.97
76519;BME280;67029;51.054;13.798;2023-07-28T03:56:45;99246.18;;;21.66;61.94
76519;BME280;67029;51.054;13.798;2023-07-28T03:59:15;99248.73;;;21.65;62.03
76519;BME280;67029;51.054;13.798;2023-07-28T04:01:45;99249.41;;;21.69;61.87
76519;BME280;67029;51.054;13.798;2023-07-28T04:04:15;99247.78;;;21.67;61.95
76519;BME280;67029;51.054;13.798;2023-07-28T04:06:47;99246.08;;;21.61;62.17
76519;BME280;67029;51.054;13.798;2023-07-28T04:09:16;99248.00;;;21.65;62.12
76519;BME280;67029;51.054;13.798;2023-07-28T04:11:46;99247.69;;;21.62;62.29
76519;BME280;67029;51.054;13.798;2023-07-28T04:14:16;99243.63;;;21.57;62.44
76519;BME280;67029;51.054;13.798;2023-07-28T04:16:46;99241.12;;;21.59;62.38
76519;BME280;67029;51.054;13.798;2023-07-28T04:19:16;99249.64;;;21.62;62.45
76519;BME280;67029;51.054;13.798;2023-07-28T04:21:46;99249.46;;;21.64;62.32
76519;BME280;67029;51.054;13.798;2023-07-28T04:26:49;99248.22;;;21.70;62.24
76519;BME280;67029;51.054;13.798;2023-07-28T04:29:18;99255.17;;;21.73;62.31
76519;BME280;67029;51.054;13.798;2023-07-28T04:31:48;99258.00;;;21.76;62.15
76519;BME280;67029;51.054;13.798;2023-07-28T04:34:18;99258.64;;;21.79;62.11
76519;BME280;67029;51.054;13.798;2023-07-28T04:36:48;99261.25;;;21.75;62.25
76519;BME280;67029;51.054;13.798;2023-07-28T04:39:18;99266.05;;;21.73;62.32
76519;BME280;67029;51.054;13.798;2023-07-28T04:41:48;99265.75;;;21.78;62.26
76519;BME280;67029;51.054;13.798;2023-07-28T04:44:18;99274.74;;;21.76;62.37
76519;BME280;67029;51.054;13.798;2023-07-28T04:46:48;99276.95;;;21.75;62.43
76519;BME280;67029;51.054;13.798;2023-07-28T04:49:18;99274.39;;;21.76;62.42
76519;BME280;67029;51.054;13.798;2023-07-28T04:51:48;99272.38;;;21.83;62.30
76519;BME280;67029;51.054;13.798;2023-07-28T04:54:18;99272.00;;;21.80;62.40
76519;BME280;67029;51.054;13.798;2023-07-28T04:56:48;99272.55;;;21.85;62.32
76519;BME280;67029;51.054;13.798;2023-07-28T04:59:19;99270.89;;;21.91;62.24
76519;BME280;67029;51.054;13.798;2023-07-28T05:01:48;99271.88;;;21.87;62.34
76519;BME280;67029;51.054;13.798;2023-07-28T05:04:18;99274.77;;;21.88;62.38
76519;BME280;67029;51.054;13.798;2023-07-28T05:06:48;99273.69;;;21.89;62.42
76519;BME280;67029;51.054;13.798;2023-07-28T05:09:19;99273.77;;;21.93;62.35
76519;BME280;67029;51.054;13.798;2023-07-28T05:11:49;99270.48;;;21.92;62.36
76519;BME280;67029;51.054;13.798;2023-07-28T05:14:19;99275.78;;;21.96;62.45
76519;BME280;67029;51.054;13.798;2023-07-28T05:16:49;99279.94;;;21.90;62.56
76519;BME280;67029;51.054;13.798;2023-07-28T05:19:19;99279.31;;;21.92;62.55
76519;BME280;67029;51.054;13.798;2023-07-28T05:21:49;99284.72;;;21.93;62.58
76519;BME280;67029;51.054;13.798;2023-07-28T05:24:19;99288.45;;;21.94;62.56
76519;BME280;67029;51.054;13.798;2023-07-28T05:26:49;99284.08;;;21.99;62.40
76519;BME280;67029;51.054;13.798;2023-07-28T05:29:19;99290.45;;;22.01;62.36
76519;BME280;67029;51.054;13.798;2023-07-28T05:31:50;99294.93;;;22.01;62.34
76519;BME280;67029;51.054;13.798;2023-07-28T05:34:20;99299.83;;;22.04;62.27
76519;BME280;67029;51.054;13.798;2023-07-28T05:36:50;99298.38;;;22.01;62.32
76519;BME280;67029;51.054;13.798;2023-07-28T05:39:20;99302.05;;;22.02;62.30
76519;BME280;67029;51.054;13.798;2023-07-28T05:41:50;99302.75;;;21.98;62.41
76519;BME280;67029;51.054;13.798;2023-07-28T05:44:20;99304.45;;;22.02;62.30
76519;BME280;67029;51.054;13.798;2023-07-28T05:46:50;99305.28;;;22.07;62.15
76519;BME280;67029;51.054;13.798;2023-07-28T05:49:20;99306.71;;;22.15;61.98
76519;BME280;67029;51.054;13.798;2023-07-28T05:51:50;99304.57;;;22.24;61.75
76519;BME280;67029;51.054;13.798;2023-07-28T05:54:20;99303.10;;;22.22;61.78
76519;BME280;67029;51.054;13.798;2023-07-28T05:56:50;99308.92;;;22.25;61.72
76519;BME280;67029;51.054;13.798;2023-07-28T05:59:20;99309.27;;;22.27;61.76
76519;BME280;67029;51.054;13.798;2023-07-28T06:01:50;99306.95;;;22.30;61.67
76519;BME280;67029;51.054;13.798;2023-07-28T06:04:20;99311.03;;;22.30;61.70
76519;BME280;67029;51.054;13.798;2023-07-28T06:06:50;99307.57;;;22.35;61.57
76519;BME280;67029;51.054;13.798;2023-07-28T06:09:21;99310.97;;;22.41;61.37
76519;BME280;67029;51.054;13.798;2023-07-28T06:11:50;99311.06;;;22.43;61.35
76519;BME280;67029;51.054;13.798;2023-07-28T06:14:20;99315.23;;;22.51;61.18
76519;BME280;67029;51.054;13.798;2023-07-28T06:16:50;99317.75;;;22.63;60.92
76519;BME280;67029;51.054;13.798;2023-07-28T06:19:21;99317.27;;;22.72;60.73
76519;BME280;67029;51.054;13.798;2023-07-28T06:21:51;99319.11;;;22.74;60.70
76519;BME280;67029;51.054;13.798;2023-07-28T06:24:21;99313.83;;;22.73;60.75
76519;BME280;67029;51.054;13.798;2023-07-28T06:26:51;99323.33;;;22.77;60.68
76519;BME280;67029;51.054;13.798;2023-07-28T06:29:21;99323.23;;;22.78;60.58
76519;BME280;67029;51.054;13.798;2023-07-28T06:31:51;99319.64;;;22.77;60.61
76519;BME280;67029;51.054;13.798;2023-07-28T06:34:21;99326.14;;;22.78;60.52
76519;BME280;67029;51.054;13.798;2023-07-28T06:36:51;99332.33;;;22.88;60.44
76519;BME280;67029;51.054;13.798;2023-07-28T06:39:21;99331.89;;;22.93;60.33
76519;BME280;67029;51.054;13.798;2023-07-28T06:41:51;99333.45;;;22.99;60.28
76519;BME280;67029;51.054;13.798;2023-07-28T06:44:21;99333.86;;;23.08;60.22
76519;BME280;67029;51.054;13.798;2023-07-28T06:46:51;99340.12;;;23.24;60.08
76519;BME280;67029;51.054;13.798;2023-07-28T06:49:21;99341.09;;;23.42;59.92
76519;BME280;67029;51.054;13.798;2023-07-28T06:51:51;99351.79;;;23.50;59.66
76519;BME280;67029;51.054;13.798;2023-07-28T06:54:21;99353.38;;;23.66;59.36
76519;BME280;67029;51.054;13.798;2023-07-28T06:56:51;99350.25;;;23.78;59.20
76519;BME280;67029;51.054;13.798;2023-07-28T06:59:23;99355.72;;;23.88;58.97
76519;BME280;67029;51.054;13.798;2023-07-28T07:01:51;99353.05;;;23.97;58.76
76519;BME280;67029;51.054;13.798;2023-07-28T07:04:21;99353.47;;;24.09;58.57
76519;BME280;67029;51.054;13.798;2023-07-28T07:06:51;99363.28;;;24.23;58.37
76519;BME280;67029;51.054;13.798;2023-07-28T07:09:21;99358.84;;;24.24;58.01
76519;BME280;67029;51.054;13.798;2023-07-28T07:11:51;99360.34;;;24.29;57.83
76519;BME280;67029;51.054;13.798;2023-07-28T07:14:22;99362.64;;;24.31;57.69
76519;BME280;67029;51.054;13.798;2023-07-28T07:16:51;99351.66;;;24.38;57.41
76519;BME280;67029;51.054;13.798;2023-07-28T07:19:21;99355.82;;;24.45;57.06
76519;BME280;67029;51.054;13.798;2023-07-28T07:21:55;99368.55;;;24.46;57.00
76519;BME280;67029;51.054;13.798;2023-07-28T07:24:22;99370.88;;;24.38;56.53
76519;BME280;67029;51.054;13.798;2023-07-28T07:26:52;99373.35;;;24.27;56.63
76519;BME280;67029;51.054;13.798;2023-07-28T07:29:23;99369.73;;;24.19;56.76
76519;BME280;67029;51.054;13.798;2023-07-28T07:31:53;99371.28;;;24.20;56.72
76519;BME280;67029;51.054;13.798;2023-07-28T07:34:23;99368.52;;;24.26;56.64
76519;BME280;67029;51.054;13.798;2023-07-28T07:36:53;99373.12;;;24.31;56.60
76519;BME280;67029;51.054;13.798;2023-07-28T07:39:23;99376.34;;;24.38;56.52
76519;BME280;67029;51.054;13.798;2023-07-28T07:41:53;99377.98;;;24.40;56.27
76519;BME280;67029;51.054;13.798;2023-07-28T07:44:23;99374.25;;;24.41;56.30
76519;BME280;67029;51.054;13.798;2023-07-28T07:46:53;99379.66;;;24.45;56.29
76519;BME280;67029;51.054;13.798;2023-07-28T07:49:23;99379.25;;;24.46;56.10
76519;BME280;67029;51.054;13.798;2023-07-28T07:51:53;99384.77;;;24.49;55.99
76519;BME280;67029;51.054;13.798;2023-07-28T07:54:23;99382.17;;;24.49;56.00
76519;BME280;67029;51.054;13.798;2023-07-28T07:56:53;99370.80;;;24.61;55.98
76519;BME280;67029;51.054;13.798;2023-07-28T07:59:23;99378.84;;;24.67;55.79
76519;BME280;67029;51.054;13.798;2023-07-28T08:01:53;99381.32;;;24.67;55.60
76519;BME280;67029;51.054;13.798;2023-07-28T08:04:23;99385.62;;;24.72;55.35
76519;BME280;67029;51.054;13.798;2023-07-28T08:06:53;99384.98;;;24.77;55.12
76519;BME280;67029;51.054;13.798;2023-07-28T08:09:23;99386.41;;;24.80;55.25
76519;BME280;67029;51.054;13.798;2023-07-28T08:11:53;99383.03;;;24.92;55.08
76519;BME280;67029;51.054;13.798;2023-07-28T08:14:23;99384.12;;;24.92;54.86
76519;BME280;67029;51.054;13.798;2023-07-28T08:16:54;99383.73;;;24.90;54.79
76519;BME280;67029;51.054;13.798;2023-07-28T08:19:24;99380.95;;;24.92;54.58
76519;BME280;67029;51.054;13.798;2023-07-28T08:21:54;99373.91;;;25.13;54.53
76519;BME280;67029;51.054;13.798;2023-07-28T08:24:24;99379.34;;;25.48;54.43
76519;BME280;67029;51.054;13.798;2023-07-28T08:26:54;99368.17;;;25.69;54.11
76519;BME280;67029;51.054;13.798;2023-07-28T08:29:24;99380.12;;;25.86;53.62
76519;BME280;67029;51.054;13.798;2023-07-28T08:31:54;99385.84;;;25.90;52.93
76519;BME280;67029;51.054;13.798;2023-07-28T08:34:24;99377.94;;;25.89;52.51
76519;BME280;67029;51.054;13.798;2023-07-28T08:36:54;99384.33;;;25.96;52.53
76519;BME280;67029;51.054;13.798;2023-07-28T08:39:24;99383.47;;;25.98;52.28
76519;BME280;67029;51.054;13.798;2023-07-28T08:42:03;99386.38;;;26.07;52.44
76519;BME280;67029;51.054;13.798;2023-07-28T08:44:24;99398.53;;;26.18;52.00
76519;BME280;67029;51.054;13.798;2023-07-28T08:46:54;99400.80;;;26.15;52.02
76519;BME280;67029;51.054;13.798;2023-07-28T08:49:24;99399.78;;;26.14;51.93
76519;BME280;67029;51.054;13.798;2023-07-28T08:51:59;99403.80;;;26.10;51.76
76519;BME280;67029;51.054;13.798;2023-07-28T08:54:25;99411.30;;;25.93;51.45
76519;BME280;67029;51.054;13.798;2023-07-28T08:56:57;99413.41;;;25.85;51.86
76519;BME280;67029;51.054;13.798;2023-07-28T08:59:27;99416.48;;;25.75;51.92
76519;BME280;67029;51.054;13.798;2023-07-28T09:01:57;99424.16;;;25.72;51.92
76519;BME280;67029;51.054;13.798;2023-07-28T09:04:27;99421.42;;;25.60;52.13
76519;BME280;67029;51.054;13.798;2023-07-28T09:06:57;99422.01;;;25.58;52.29
76519;BME280;67029;51.054;13.798;2023-07-28T09:09:31;99428.69;;;25.61;52.40
76519;BME280;67029;51.054;13.798;2023-07-28T09:11:59;99435.99;;;25.72;52.23
76519;BME280;67029;51.054;13.798;2023-07-28T09:14:29;99434.38;;;25.72;52.22
76519;BME280;67029;51.054;13.798;2023-07-28T09:17:12;99436.12;;;25.68;52.16
76519;BME280;67029;51.054;13.798;2023-07-28T09:19:29;99438.43;;;25.60;52.27
76519;BME280;67029;51.054;13.798;2023-07-28T09:22:00;99435.52;;;25.53;52.18
76519;BME280;67029;51.054;13.798;2023-07-28T09:24:30;99443.61;;;25.49;52.35
76519;BME280;67029;51.054;13.798;2023-07-28T09:27:01;99451.66;;;25.46;52.33
76519;BME280;67029;51.054;13.798;2023-07-28T09:29:30;99455.37;;;25.42;52.31
76519;BME280;67029;51.054;13.798;2023-07-28T09:32:05;99454.22;;;25.37;52.49
76519;BME280;67029;51.054;13.798;2023-07-28T09:34:31;99455.61;;;25.37;52.63
76519;BME280;67029;51.054;13.798;2023-07-28T09:37:04;99449.56;;;25.37;52.69
76519;BME280;67029;51.054;13.798;2023-07-28T09:39:33;99445.52;;;25.52;52.62
76519;BME280;67029;51.054;13.798;2023-07-28T09:42:04;99444.29;;;25.75;52.59
76519;BME280;67029;51.054;13.798;2023-07-28T09:44:33;99442.72;;;26.05;52.07
76519;BME280;67029;51.054;13.798;2023-07-28T09:47:03;99443.36;;;26.34;52.16
76519;BME280;67029;51.054;13.798;2023-07-28T09:49:36;99447.65;;;26.73;51.61
76519;BME280;67029;51.054;13.798;2023-07-28T09:52:08;99437.30;;;27.21;50.92
76519;BME280;67029;51.054;13.798;2023-07-28T09:54:40;99443.20;;;27.62;50.59
76519;BME280;67029;51.054;13.798;2023-07-28T09:57:13;99445.51;;;27.95;50.42
76519;BME280;67029;51.054;13.798;2023-07-28T09:59:38;99440.67;;;28.25;49.14
76519;BME280;67029;51.054;13.798;2023-07-28T10:02:07;99436.97;;;28.47;49.17
76519;BME280;67029;51.054;13.798;2023-07-28T10:04:37;99442.03;;;28.57;47.97
76519;BME280;67029;51.054;13.798;2023-07-28T10:07:07;99446.94;;;28.54;48.40
76519;BME280;67029;51.054;13.798;2023-07-28T10:09:38;99447.98;;;28.51;47.58
76519;BME280;67029;51.054;13.798;2023-07-28T10:12:23;99446.35;;;28.55;47.94
76519;BME280;67029;51.054;13.798;2023-07-28T10:14:39;99443.78;;;28.52;47.39
76519;BME280;67029;51.054;13.798;2023-07-28T10:17:17;99443.62;;;28.40;47.32
76519;BME280;67029;51.054;13.798;2023-07-28T10:19:39;99452.20;;;28.35;47.19
76519;BME280;67029;51.054;13.798;2023-07-28T10:22:11;99446.73;;;28.20;47.13
76519;BME280;67029;51.054;13.798;2023-07-28T10:24:54;99451.09;;;28.11;47.22
76519;BME280;67029;51.054;13.798;2023-07-28T10:27:11;99449.61;;;28.17;47.42
76519;BME280;67029;51.054;13.798;2023-07-28T10:29:55;99455.02;;;28.30;46.87
76519;BME280;67029;51.054;13.798;2023-07-28T10:32:25;99459.00;;;28.27;46.96
76519;BME280;67029;51.054;13.798;2023-07-28T10:34:58;99451.62;;;28.21;46.54
76519;BME280;67029;51.054;13.798;2023-07-28T10:37:14;99455.51;;;28.04;46.76
76519;BME280;67029;51.054;13.798;2023-07-28T10:39:43;99449.90;;;28.03;46.48
76519;BME280;67029;51.054;13.798;2023-07-28T10:42:13;99450.69;;;28.00;46.66
76519;BME280;67029;51.054;13.798;2023-07-28T10:44:43;99460.83;;;28.07;46.86
76519;BME280;67029;51.054;13.798;2023-07-28T10:47:13;99456.44;;;28.22;46.87
76519;BME280;67029;51.054;13.798;2023-07-28T10:49:46;99458.81;;;28.31;46.79
76519;BME280;67029;51.054;13.798;2023-07-28T10:52:15;99450.72;;;28.50;46.77
76519;BME280;67029;51.054;13.798;2023-07-28T10:54:44;99452.84;;;28.54;46.22
76519;BME280;67029;51.054;13.798;2023-07-28T10:57:14;99449.17;;;28.59;46.41
76519;BME280;67029;51.054;13.798;2023-07-28T10:59:44;99453.04;;;28.85;46.30
76519;BME280;67029;51.054;13.798;2023-07-28T11:02:15;99450.09;;;29.14;46.20
76519;BME280;67029;51.054;13.798;2023-07-28T11:04:47;99443.40;;;29.48;45.07
76519;BME280;67029;51.054;13.798;2023-07-28T11:07:15;99437.14;;;29.66;43.68
76519;BME280;67029;51.054;13.798;2023-07-28T11:09:45;99430.25;;;29.90;44.07
76519;BME280;67029;51.054;13.798;2023-07-28T11:12:15;99428.54;;;30.27;44.01
76519;BME280;67029;51.054;13.798;2023-07-28T11:14:45;99417.73;;;30.72;43.78
76519;BME280;67029;51.054;13.798;2023-07-28T11:17:15;99425.69;;;31.17;43.10
76519;BME280;67029;51.054;13.798;2023-07-28T11:19:45;99421.97;;;31.57;42.74
76519;BME280;67029;51.054;13.798;2023-07-28T11:22:18;99428.95;;;31.95;41.78
76519;BME280;67029;51.054;13.798;2023-07-28T11:24:50;99430.33;;;32.31;41.42
76519;BME280;67029;51.054;13.798;2023-07-28T11:27:17;99431.02;;;32.59;40.76
76519;BME280;67029;51.054;13.798;2023-07-28T11:29:47;99425.01;;;32.77;39.39
76519;BME280;67029;51.054;13.798;2023-07-28T11:32:17;99425.99;;;32.85;38.64
76519;BME280;67029;51.054;13.798;2023-07-28T11:34:48;99442.12;;;32.85;37.85
76519;BME280;67029;51.054;13.798;2023-07-28T11:37:18;99435.31;;;32.99;38.28
76519;BME280;67029;51.054;13.798;2023-07-28T11:39:48;99438.13;;;33.09;37.45
76519;BME280;67029;51.054;13.798;2023-07-28T11:42:18;99433.19;;;33.13;36.93
76519;BME280;67029;51.054;13.798;2023-07-28T11:44:48;99440.05;;;33.17;37.41
76519;BME280;67029;51.054;13.798;2023-07-28T11:47:18;99437.38;;;33.21;36.06
76519;BME280;67029;51.054;13.798;2023-07-28T11:49:48;99438.69;;;33.24;37.41
76519;BME280;67029;51.054;13.798;2023-07-28T11:52:19;99443.57;;;33.34;36.80
76519;BME280;67029;51.054;13.798;2023-07-28T11:54:49;99439.91;;;33.44;36.51
76519;BME280;67029;51.054;13.798;2023-07-28T11:57:20;99439.88;;;33.25;35.98
76519;BME280;67029;51.054;13.798;2023-07-28T11:59:51;99440.83;;;33.03;35.76
76519;BME280;67029;51.054;13.798;2023-07-28T12:02:27;99442.94;;;33.01;36.05
76519;BME280;67029;51.054;13.798;2023-07-28T12:04:51;99440.40;;;33.00;35.98
76519;BME280;67029;51.054;13.798;2023-07-28T12:07:28;99440.77;;;32.98;35.78
76519;BME280;67029;51.054;13.798;2023-07-28T12:09:51;99436.16;;;33.03;36.09
76519;BME280;67029;51.054;13.798;2023-07-28T12:12:23;99447.25;;;33.02;36.36
76519;BME280;67029;51.054;13.798;2023-07-28T12:14:54;99445.56;;;33.13;36.43
76519;BME280;67029;51.054;13.798;2023-07-28T12:17:24;99448.70;;;33.32;36.91
76519;BME280;67029;51.054;13.798;2023-07-28T12:20:03;99454.69;;;33.53;36.38
76519;BME280;67029;51.054;13.798;2023-07-28T12:22:23;99454.83;;;33.70;36.37
76519;BME280;67029;51.054;13.798;2023-07-28T12:24:54;99457.53;;;33.80;35.92
76519;BME280;67029;51.054;13.798;2023-07-28T12:27:24;99460.08;;;33.88;35.78
76519;BME280;67029;51.054;13.798;2023-07-28T12:29:54;99461.62;;;33.86;35.58
76519;BME280;67029;51.054;13.798;2023-07-28T12:32:25;99454.73;;;33.95;36.07
76519;BME280;67029;51.054;13.798;2023-07-28T12:34:56;99455.17;;;33.91;36.01
76519;BME280;67029;51.054;13.798;2023-07-28T12:37:25;99454.12;;;34.18;36.05
76519;BME280;67029;51.054;13.798;2023-07-28T12:39:55;99453.95;;;34.54;35.85
76519;BME280;67029;51.054;13.798;2023-07-28T12:42:25;99453.27;;;34.80;35.62
76519;BME280;67029;51.054;13.798;2023-07-28T12:44:58;99458.94;;;34.85;34.04
76519;BME280;67029;51.054;13.798;2023-07-28T12:47:25;99458.98;;;34.96;34.37
76519;BME280;67029;51.054;13.798;2023-07-28T12:49:56;99451.45;;;34.92;33.71
76519;BME280;67029;51.054;13.798;2023-07-28T12:52:26;99456.19;;;34.92;34.30
76519;BME280;67029;51.054;13.798;2023-07-28T12:54:56;99460.33;;;34.92;33.65
76519;BME280;67029;51.054;13.798;2023-07-28T12:57:26;99465.05;;;34.75;33.91
76519;BME280;67029;51.054;13.798;2023-07-28T12:59:56;99466.28;;;34.75;33.85
76519;BME280;67029;51.054;13.798;2023-07-28T13:02:26;99472.03;;;34.60;33.52
76519;BME280;67029;51.054;13.798;2023-07-28T13:04:56;99471.75;;;34.29;33.70
76519;BME280;67029;51.054;13.798;2023-07-28T13:07:26;99472.69;;;34.07;33.73